Time;durP1;ratioP1;P1;durP2;ratioP2;P2;SDS_P1;SDS_P2;PMS_P1;PMS_P2;Temp;Humidity;BMP_temperature;BMP_pressure;BME280_temperature;BME280_humidity;BME280_pressure;Samples;Min_cycle;Max_cycle;Signal;HPM_P1;HPM_P2
2023/10/17 00:06:22;;;;;;;6.47;3.47;;;8.10;99.90;;;;;;20280507;29;20044;-41
2023/10/17 00:16:23;;;;;;;6.55;3.65;;;8.10;99.90;;;;;;20276718;29;20044;-41
2023/10/17 00:26:24;;;;;;;7.60;3.78;;;8.10;99.90;;;;;;20286399;29;20124;-41
2023/10/17 00:36:28;;;;;;;7.60;3.67;;;8.10;99.90;;;;;;20276305;29;20072;-41
2023/10/17 00:46:28;;;;;;;8.68;3.63;;;8.10;99.90;;;;;;20280239;29;20416;-41
2023/10/17 00:56:29;;;;;;;8.95;4.47;;;8.10;99.90;;;;;;20279782;29;20059;-41
2023/10/17 01:16:34;;;;;;;6.35;3.78;;;8.10;99.90;;;;;;20273143;29;20068;-41
2023/10/17 01:26:38;;;;;;;8.18;3.53;;;8.10;99.90;;;;;;20257853;29;20052;-41
2023/10/17 01:36:38;;;;;;;7.47;3.45;;;8.00;99.90;;;;;;20257867;29;20056;-41
2023/10/17 01:46:39;;;;;;;5.90;3.85;;;8.00;99.90;;;;;;20265277;29;20087;-41
2023/10/17 01:56:40;;;;;;;7.25;3.78;;;8.10;99.90;;;;;;20283393;29;20062;-41
2023/10/17 02:06:42;;;;;;;9.35;3.70;;;8.00;99.90;;;;;;20287667;29;20062;-41
2023/10/17 02:16:43;;;;;;;9.52;4.00;;;8.00;99.90;;;;;;20288193;29;20064;-41
2023/10/17 02:26:56;;;;;;;5.82;3.47;;;8.10;99.90;;;;;;20281888;29;20584;-41
2023/10/17 02:37:00;;;;;;;6.05;3.33;;;8.00;99.90;;;;;;20289211;29;20048;-41
2023/10/17 02:47:01;;;;;;;6.22;3.50;;;8.00;99.90;;;;;;20289543;29;20048;-41
2023/10/17 02:57:06;;;;;;;9.05;3.50;;;8.00;99.90;;;;;;20282995;29;20040;-41
2023/10/17 03:07:11;;;;;;;11.55;4.13;;;8.00;99.90;;;;;;20278305;29;20106;-41
2023/10/17 03:17:15;;;;;;;8.70;3.67;;;8.00;99.90;;;;;;20276563;29;20555;-41
2023/10/17 03:27:26;;;;;;;5.68;3.63;;;8.00;99.90;;;;;;20283003;29;20048;-41
2023/10/17 03:37:28;;;;;;;7.80;3.53;;;8.00;99.90;;;;;;20281001;29;20056;-41
2023/10/17 03:47:31;;;;;;;6.88;3.55;;;7.90;99.90;;;;;;20283347;29;20067;-41
2023/10/17 03:57:31;;;;;;;8.60;3.60;;;7.90;99.90;;;;;;20276872;29;20040;-41
2023/10/17 04:07:32;;;;;;;5.57;3.35;;;8.00;99.90;;;;;;20270142;29;20147;-41
2023/10/17 04:17:36;;;;;;;6.35;3.15;;;7.90;99.90;;;;;;20273721;29;20083;-41
2023/10/17 04:27:37;;;;;;;5.40;3.22;;;7.90;99.90;;;;;;20284228;29;20052;-41
2023/10/17 04:37:38;;;;;;;7.80;3.45;;;7.90;99.90;;;;;;20266069;29;20169;-41
2023/10/17 04:47:39;;;;;;;6.95;3.55;;;8.00;99.90;;;;;;20274217;29;20048;-41
2023/10/17 05:08:18;;;;;;;8.55;3.65;;;7.90;97.30;;;;;;20238038;29;20052;-41
2023/10/17 06:20:18;;;;;;;30.80;17.33;;;7.60;94.30;;;;;;20281628;29;20044;-41
2023/10/17 06:30:28;;;;;;;9.07;5.10;;;7.50;94.90;;;;;;20308695;29;20087;-41
2023/10/17 06:40:32;;;;;;;15.40;6.00;;;7.40;97.30;;;;;;20312120;29;20122;-41
2023/10/17 07:00:59;;;;;;;12.30;6.50;;;7.30;99.90;;;;;;20263029;29;20119;-41
2023/10/17 07:11:18;;;;;;;9.43;5.85;;;7.30;99.90;;;;;;20321680;29;20075;-41
2023/10/17 07:21:24;;;;;;;12.95;6.70;;;7.40;99.90;;;;;;20311021;29;20063;-41
2023/10/17 07:31:25;;;;;;;12.93;7.53;;;7.50;99.90;;;;;;20320267;29;20044;-41
2023/10/17 07:41:37;;;;;;;13.48;8.10;;;7.60;99.90;;;;;;20311806;29;20064;-41
2023/10/17 07:51:42;;;;;;;28.02;10.10;;;7.80;99.90;;;;;;20308057;29;20079;-41
2023/10/17 08:01:46;;;;;;;19.42;10.02;;;8.00;99.90;;;;;;20312609;29;20043;-41
2023/10/17 08:11:51;;;;;;;15.98;9.43;;;8.30;99.90;;;;;;20315146;29;20123;-41
2023/10/17 08:32:38;;;;;;;16.80;10.02;;;9.10;61.20;;;;;;20312328;29;20134;-41
2023/10/17 08:42:38;;;;;;;13.02;8.93;;;9.40;32.10;;;;;;20307409;29;20587;-41
2023/10/17 08:52:40;;;;;;;14.18;8.40;;;9.80;20.50;;;;;;20313134;29;20256;-41
2023/10/17 09:02:43;;;;;;;13.68;7.18;;;10.00;5.90;;;;;;20319087;29;20052;-41
2023/10/17 09:13:12;;;;;;;8.55;5.10;;;10.10;1.00;;;;;;20328285;29;20048;-41
2023/10/17 09:23:28;;;;;;;9.07;3.78;;;10.30;1.00;;;;;;20328616;29;20147;-41
2023/10/17 09:33:30;;;;;;;6.22;3.47;;;10.40;1.00;;;;;;20327845;29;20552;-41
2023/10/17 09:43:31;;;;;;;5.82;2.85;;;10.60;1.00;;;;;;20323284;29;20057;-41
2023/10/17 09:53:33;;;;;;;5.00;2.97;;;10.80;1.00;;;;;;20320584;29;20425;-41
2023/10/17 10:03:36;;;;;;;6.95;3.15;;;11.00;1.00;;;;;;20322249;29;20052;-41
2023/10/17 10:14:03;;;;;;;8.63;3.63;;;11.20;1.00;;;;;;20317187;29;20040;-41
2023/10/17 10:24:17;;;;;;;11.53;5.17;;;11.50;1.00;;;;;;20303942;29;20104;-41
2023/10/17 10:34:18;;;;;;;9.35;5.00;;;11.50;1.00;;;;;;20317213;29;20128;-41
2023/10/17 10:44:20;;;;;;;9.35;4.80;;;11.70;1.00;;;;;;20318257;29;20044;-41
2023/10/17 10:54:22;;;;;;;7.57;4.03;;;11.90;1.00;;;;;;20314974;29;20036;-41
2023/10/17 11:04:23;;;;;;;10.35;4.00;;;12.50;1.00;;;;;;20318450;29;20059;-41
2023/10/17 11:14:23;;;;;;;4.75;2.70;;;13.00;1.00;;;;;;20315514;29;20131;-41
2023/10/17 11:24:26;;;;;;;5.85;2.63;;;13.30;1.00;;;;;;20315079;29;20067;-41
2023/10/17 11:34:31;;;;;;;5.55;2.70;;;13.80;1.00;;;;;;20315254;29;20059;-41
2023/10/17 11:44:32;;;;;;;3.50;2.17;;;13.90;1.00;;;;;;20315891;29;20083;-41
2023/10/17 11:54:52;;;;;;;4.88;1.83;;;14.20;1.00;;;;;;20310767;29;20051;-41
2023/10/17 12:04:53;;;;;;;5.88;2.30;;;14.50;1.00;;;;;;20294550;29;20135;-42
2023/10/17 12:14:53;;;;;;;4.15;2.00;;;14.70;1.00;;;;;;20302118;29;20091;-42
2023/10/17 12:24:56;;;;;;;7.95;2.00;;;14.90;1.00;;;;;;20308639;29;20045;-41
2023/10/17 12:34:57;;;;;;;6.95;2.28;;;14.90;1.00;;;;;;20306082;29;20393;-41
2023/10/17 12:44:58;;;;;;;2.90;1.60;;;15.10;1.00;;;;;;20313784;29;20052;-41
2023/10/17 12:54:59;;;;;;;4.85;1.45;;;15.00;1.00;;;;;;20305177;29;20100;-41
2023/10/17 13:05:00;;;;;;;3.70;1.77;;;15.30;1.00;;;;;;20302502;29;20047;-41
2023/10/17 13:15:00;;;;;;;4.32;1.80;;;15.70;1.00;;;;;;20298572;29;20047;-42
2023/10/17 13:25:02;;;;;;;2.88;1.58;;;15.60;1.00;;;;;;20309354;29;20670;-41
2023/10/17 13:35:03;;;;;;;3.90;1.70;;;15.40;1.00;;;;;;20301935;29;20132;-41
2023/10/17 13:45:05;;;;;;;4.65;1.70;;;15.50;1.00;;;;;;20305296;29;20040;-41
2023/10/17 13:55:09;;;;;;;3.63;1.77;;;14.90;1.00;;;;;;20316878;29;20044;-41
2023/10/17 14:05:09;;;;;;;2.72;1.40;;;14.90;1.00;;;;;;20317524;29;20689;-42
2023/10/17 14:15:10;;;;;;;3.38;1.45;;;15.30;1.00;;;;;;20318444;29;20044;-41
2023/10/17 14:25:13;;;;;;;5.23;1.37;;;15.20;1.00;;;;;;20306879;29;20052;-41
2023/10/17 14:35:13;;;;;;;3.95;1.60;;;15.40;1.00;;;;;;20291557;29;20068;-42
2023/10/17 14:45:14;;;;;;;4.93;2.70;;;15.30;1.00;;;;;;20216283;29;20049;-41
2023/10/17 14:55:15;;;;;;;4.07;1.80;;;14.80;1.00;;;;;;20220456;29;20047;-42
2023/10/17 15:05:16;;;;;;;2.92;1.48;;;14.40;1.00;;;;;;20220027;29;20049;-41
2023/10/17 15:15:17;;;;;;;4.95;2.42;;;14.00;1.00;;;;;;20206807;29;20068;-41
2023/10/17 15:25:19;;;;;;;4.70;1.47;;;13.80;1.00;;;;;;20218353;29;20045;-41
2023/10/17 15:35:19;;;;;;;5.20;2.30;;;13.50;1.00;;;;;;20226362;29;20483;-42
2023/10/17 15:45:20;;;;;;;3.63;1.70;;;13.10;1.00;;;;;;20292066;29;20052;-41
2023/10/17 15:55:22;;;;;;;4.07;1.60;;;13.00;1.00;;;;;;20266466;29;20040;-41
2023/10/17 16:05:23;;;;;;;3.15;1.80;;;12.90;1.00;;;;;;20277970;29;20055;-42
2023/10/17 16:15:24;;;;;;;4.63;1.70;;;12.70;1.00;;;;;;20251381;29;20072;-41
2023/10/17 16:25:24;;;;;;;4.45;2.10;;;12.40;1.00;;;;;;20255155;29;20732;-41
2023/10/17 16:35:25;;;;;;;4.18;1.83;;;12.20;1.00;;;;;;20241058;29;1080370;-41
2023/10/17 16:45:26;;;;;;;5.90;1.77;;;11.90;1.00;;;;;;20265629;29;20515;-41
2023/10/17 16:55:26;;;;;;;6.72;3.47;;;11.80;1.00;;;;;;20266628;29;20053;-41
2023/10/17 17:05:27;;;;;;;4.65;1.83;;;11.60;1.00;;;;;;20283788;29;20587;-41
2023/10/17 17:15:28;;;;;;;4.13;1.83;;;11.40;1.00;;;;;;20279739;29;20044;-41
2023/10/17 17:25:30;;;;;;;4.93;3.03;;;11.10;1.00;;;;;;20287439;29;20627;-41
2023/10/17 17:35:31;;;;;;;4.35;2.30;;;10.80;1.00;;;;;;20302938;29;20068;-41
2023/10/17 17:45:32;;;;;;;3.80;2.28;;;10.70;1.00;;;;;;20296197;29;20161;-41
2023/10/17 17:55:38;;;;;;;6.18;2.95;;;10.50;1.00;;;;;;20297879;29;20041;-41
2023/10/17 18:05:39;;;;;;;5.97;2.97;;;10.40;1.00;;;;;;20297414;29;20055;-41
2023/10/17 18:15:40;;;;;;;7.50;3.50;;;10.20;1.00;;;;;;20312149;29;20060;-41
2023/10/17 18:25:40;;;;;;;6.03;3.17;;;10.10;1.00;;;;;;20296948;29;20059;-41
2023/10/17 18:35:41;;;;;;;6.93;2.83;;;10.00;1.00;;;;;;20293007;29;20484;-41
2023/10/17 18:45:41;;;;;;;4.47;2.83;;;9.90;1.00;;;;;;20308856;29;20055;-41
2023/10/17 18:55:44;;;;;;;9.00;3.10;;;9.70;1.00;;;;;;20287817;29;20096;-41
2023/10/17 19:05:44;;;;;;;6.45;3.05;;;9.70;1.00;;;;;;20293064;29;20056;-41
2023/10/17 19:15:45;;;;;;;7.53;3.83;;;9.50;1.00;;;;;;20305954;29;20067;-41
2023/10/17 19:25:46;;;;;;;6.95;4.00;;;9.40;1.00;;;;;;20291949;29;20104;-41
2023/10/17 19:35:47;;;;;;;8.95;4.60;;;9.40;1.00;;;;;;20287134;29;20084;-41
2023/10/17 19:45:47;;;;;;;9.27;4.85;;;9.30;1.00;;;;;;20286563;29;20048;-41
2023/10/17 19:55:48;;;;;;;10.63;5.47;;;9.30;1.00;;;;;;20271517;29;20493;-41
2023/10/17 20:05:49;;;;;;;10.45;6.00;;;9.30;1.00;;;;;;20273776;29;20103;-41
2023/10/17 20:15:51;;;;;;;10.80;6.18;;;9.30;1.00;;;;;;20270806;29;20036;-41
2023/10/17 20:25:55;;;;;;;10.93;6.60;;;9.30;1.00;;;;;;20269130;29;20639;-41
2023/10/17 20:36:04;;;;;;;11.13;7.00;;;9.20;1.00;;;;;;20269376;29;20092;-41
2023/10/17 20:46:04;;;;;;;10.75;7.35;;;9.00;1.00;;;;;;20297935;29;20409;-41
2023/10/17 20:56:14;;;;;;;11.63;7.60;;;9.00;1.00;;;;;;20307316;29;20379;-41
2023/10/17 21:06:15;;;;;;;12.38;7.97;;;9.00;1.00;;;;;;20308481;29;20059;-41
2023/10/17 21:16:16;;;;;;;11.95;7.78;;;8.90;1.00;;;;;;20304942;29;20496;-41
2023/10/17 21:26:17;;;;;;;10.73;7.90;;;8.90;1.00;;;;;;20302379;29;20044;-41
2023/10/17 21:36:17;;;;;;;11.77;8.23;;;8.80;1.00;;;;;;20295674;29;20102;-40
2023/10/17 21:46:18;;;;;;;13.38;8.30;;;8.90;1.00;;;;;;20299073;29;20131;-41
2023/10/17 21:56:19;;;;;;;14.10;8.88;;;8.70;1.00;;;;;;20286801;29;20566;-41
2023/10/17 22:06:20;;;;;;;12.60;8.70;;;8.70;1.00;;;;;;20283000;29;20098;-41
2023/10/17 22:16:20;;;;;;;12.98;8.45;;;8.70;1.00;;;;;;20287518;29;20496;-41
2023/10/17 22:26:21;;;;;;;14.17;9.40;;;8.60;1.00;;;;;;20281436;29;20048;-41
2023/10/17 22:36:21;;;;;;;13.70;9.63;;;8.50;1.00;;;;;;20276023;29;20468;-40
2023/10/17 22:46:22;;;;;;;16.10;9.73;;;8.50;1.00;;;;;;20280703;29;20423;-40
2023/10/17 22:56:23;;;;;;;13.60;8.98;;;8.40;1.00;;;;;;20293095;29;20096;-40
2023/10/17 23:06:23;;;;;;;15.40;9.10;;;8.40;1.00;;;;;;20298256;29;20055;-40
2023/10/17 23:16:24;;;;;;;15.07;10.10;;;8.30;1.00;;;;;;20299848;29;20039;-41
2023/10/17 23:26:27;;;;;;;18.20;11.02;;;8.20;1.00;;;;;;20291558;29;20055;-41
2023/10/17 23:36:28;;;;;;;16.15;9.45;;;8.20;1.00;;;;;;20295592;29;20059;-40
2023/10/17 23:46:30;;;;;;;15.27;9.98;;;8.10;1.00;;;;;;20289645;29;20390;-40
2023/10/17 23:56:32;;;;;;;15.10;10.02;;;8.10;1.00;;;;;;20287583;29;20044;-41
